sensor_id;sensor_type;location;lat;lon;timestamp;pressure;altitude;pressure_sealevel;temperature;humidity
71889;BME280;59762;49.998;14.858;2022-09-09T00:00:20;97107.13;;;13.35;100.00
71889;BME280;59762;49.998;14.858;2022-09-09T00:03:12;97104.44;;;13.35;100.00
71889;BME280;59762;49.998;14.858;2022-09-09T00:06:17;97104.91;;;13.32;100.00
71889;BME280;59762;49.998;14.858;2022-09-09T00:09:08;97096.06;;;13.31;100.00
71889;BME280;59762;49.998;14.858;2022-09-09T00:11:43;97102.72;;;13.29;100.00
71889;BME280;59762;49.998;14.858;2022-09-09T00:16:52;97096.25;;;13.25;100.00
71889;BME280;59762;49.998;14.858;2022-09-09T00:24:38;97102.50;;;13.19;100.00
71889;BME280;59762;49.998;14.858;2022-09-09T00:27:35;97104.38;;;13.18;100.00
71889;BME280;59762;49.998;14.858;2022-09-09T00:30:22;97096.59;;;13.17;100.00
71889;BME280;59762;49.998;14.858;2022-09-09T00:33:12;97102.66;;;13.12;100.00
71889;BME280;59762;49.998;14.858;2022-09-09T00:35:45;97107.66;;;13.08;100.00
71889;BME280;59762;49.998;14.858;2022-09-09T00:38:48;97094.66;;;13.00;100.00
71889;BME280;59762;49.998;14.858;2022-09-09T00:44:06;97099.34;;;12.93;100.00
71889;BME280;59762;49.998;14.858;2022-09-09T00:49:56;97118.91;;;12.82;100.00
71889;BME280;59762;49.998;14.858;2022-09-09T00:55:23;97122.63;;;12.81;100.00
71889;BME280;59762;49.998;14.858;2022-09-09T00:57:52;97120.78;;;12.81;100.00
71889;BME280;59762;49.998;14.858;2022-09-09T01:00:34;97125.88;;;12.83;100.00
71889;BME280;59762;49.998;14.858;2022-09-09T01:03:21;97126.94;;;12.82;100.00
71889;BME280;59762;49.998;14.858;2022-09-09T01:10:54;97122.63;;;12.81;100.00
71889;BME280;59762;49.998;14.858;2022-09-09T01:13:29;97125.88;;;12.83;100.00
71889;BME280;59762;49.998;14.858;2022-09-09T01:16:01;97120.22;;;12.79;100.00
71889;BME280;59762;49.998;14.858;2022-09-09T01:18:32;97128.44;;;12.78;100.00
71889;BME280;59762;49.998;14.858;2022-09-09T01:26:35;97128.81;;;12.70;100.00
71889;BME280;59762;49.998;14.858;2022-09-09T01:29:07;97122.44;;;12.71;100.00
71889;BME280;59762;49.998;14.858;2022-09-09T01:31:56;97114.88;;;12.68;100.00
71889;BME280;59762;49.998;14.858;2022-09-09T01:34:25;97119.97;;;12.69;100.00
71889;BME280;59762;49.998;14.858;2022-09-09T01:37:28;97123.13;;;12.66;100.00
71889;BME280;59762;49.998;14.858;2022-09-09T01:39:46;97122.31;;;12.66;100.00
71889;BME280;59762;49.998;14.858;2022-09-09T01:42:15;97111.97;;;12.69;100.00
71889;BME280;59762;49.998;14.858;2022-09-09T01:44:41;97122.09;;;12.67;100.00
71889;BME280;59762;49.998;14.858;2022-09-09T01:47:07;97109.78;;;12.66;100.00
71889;BME280;59762;49.998;14.858;2022-09-09T01:49:32;97112.66;;;12.65;100.00
71889;BME280;59762;49.998;14.858;2022-09-09T01:51:58;97113.81;;;12.69;100.00
71889;BME280;59762;49.998;14.858;2022-09-09T01:54:27;97110.91;;;12.70;100.00
71889;BME280;59762;49.998;14.858;2022-09-09T02:00:09;97118.47;;;12.61;100.00
71889;BME280;59762;49.998;14.858;2022-09-09T02:02:39;97115.25;;;12.59;100.00
71889;BME280;59762;49.998;14.858;2022-09-09T02:05:38;97110.94;;;12.58;100.00
71889;BME280;59762;49.998;14.858;2022-09-09T02:08:08;97113.84;;;12.57;100.00
71889;BME280;59762;49.998;14.858;2022-09-09T02:13:12;97119.44;;;12.55;100.00
71889;BME280;59762;49.998;14.858;2022-09-09T02:18:47;97111.19;;;12.45;100.00
71889;BME280;59762;49.998;14.858;2022-09-09T02:21:15;97118.88;;;12.42;100.00
71889;BME280;59762;49.998;14.858;2022-09-09T02:23:43;97121.19;;;12.38;100.00
71889;BME280;59762;49.998;14.858;2022-09-09T02:26:11;97117.94;;;12.36;100.00
71889;BME280;59762;49.998;14.858;2022-09-09T02:28:40;97122.34;;;12.30;100.00
71889;BME280;59762;49.998;14.858;2022-09-09T02:31:07;97123.88;;;12.26;100.00
71889;BME280;59762;49.998;14.858;2022-09-09T02:33:38;97118.75;;;12.25;100.00
71889;BME280;59762;49.998;14.858;2022-09-09T02:36:07;97120.25;;;12.21;100.00
71889;BME280;59762;49.998;14.858;2022-09-09T02:38:38;97123.97;;;12.20;100.00
71889;BME280;59762;49.998;14.858;2022-09-09T02:41:06;97114.34;;;12.19;100.00
71889;BME280;59762;49.998;14.858;2022-09-09T02:43:35;97121.78;;;12.17;100.00
71889;BME280;59762;49.998;14.858;2022-09-09T02:46:08;97120.97;;;12.16;100.00
71889;BME280;59762;49.998;14.858;2022-09-09T02:48:55;97116.66;;;12.15;100.00
71889;BME280;59762;49.998;14.858;2022-09-09T02:54:30;97117.00;;;12.07;100.00
71889;BME280;59762;49.998;14.858;2022-09-09T02:57:21;97112.38;;;12.02;100.00
71889;BME280;59762;49.998;14.858;2022-09-09T02:59:49;97111.81;;;12.00;100.00
71889;BME280;59762;49.998;14.858;2022-09-09T03:02:15;97116.09;;;12.01;100.00
71889;BME280;59762;49.998;14.858;2022-09-09T03:04:41;97129.44;;;12.01;100.00
71889;BME280;59762;49.998;14.858;2022-09-09T03:07:10;97125.34;;;11.99;100.00
71889;BME280;59762;49.998;14.858;2022-09-09T03:09:36;97128.28;;;11.97;100.00
71889;BME280;59762;49.998;14.858;2022-09-09T03:12:02;97127.09;;;11.93;100.00
71889;BME280;59762;49.998;14.858;2022-09-09T03:14:29;97132.44;;;11.93;100.00
71889;BME280;59762;49.998;14.858;2022-09-09T03:16:55;97127.66;;;11.95;100.00
71889;BME280;59762;49.998;14.858;2022-09-09T03:19:23;97128.72;;;11.94;100.00
71889;BME280;59762;49.998;14.858;2022-09-09T03:21:49;97125.84;;;11.96;100.00
71889;BME280;59762;49.998;14.858;2022-09-09T03:24:15;97129.88;;;11.98;100.00
71889;BME280;59762;49.998;14.858;2022-09-09T03:26:41;97138.94;;;11.97;100.00
71889;BME280;59762;49.998;14.858;2022-09-09T03:29:10;97127.91;;;11.94;100.00
71889;BME280;59762;49.998;14.858;2022-09-09T03:31:38;97123.38;;;11.94;100.00
71889;BME280;59762;49.998;14.858;2022-09-09T03:34:04;97123.63;;;11.93;100.00
71889;BME280;59762;49.998;14.858;2022-09-09T03:36:30;97123.88;;;11.91;100.00
71889;BME280;59762;49.998;14.858;2022-09-09T03:38:56;97121.41;;;11.90;100.00
71889;BME280;59762;49.998;14.858;2022-09-09T03:41:22;97128.59;;;11.89;100.00
71889;BME280;59762;49.998;14.858;2022-09-09T03:43:52;97124.88;;;11.90;100.00
71889;BME280;59762;49.998;14.858;2022-09-09T03:46:19;97126.88;;;11.95;100.00
71889;BME280;59762;49.998;14.858;2022-09-09T03:48:46;97132.56;;;11.98;100.00
71889;BME280;59762;49.998;14.858;2022-09-09T03:51:11;97126.41;;;11.98;100.00
71889;BME280;59762;49.998;14.858;2022-09-09T03:53:37;97125.16;;;12.00;100.00
71889;BME280;59762;49.998;14.858;2022-09-09T03:56:04;97130.25;;;12.02;100.00
71889;BME280;59762;49.998;14.858;2022-09-09T03:58:36;97117.94;;;12.01;100.00
71889;BME280;59762;49.998;14.858;2022-09-09T04:01:03;97131.06;;;12.02;100.00
71889;BME280;59762;49.998;14.858;2022-09-09T04:03:31;97128.38;;;12.02;100.00
71889;BME280;59762;49.998;14.858;2022-09-09T04:05:59;97135.59;;;12.02;100.00
71889;BME280;59762;49.998;14.858;2022-09-09T04:08:26;97132.69;;;12.03;100.00
71889;BME280;59762;49.998;14.858;2022-09-09T04:10:52;97132.69;;;12.03;100.00
71889;BME280;59762;49.998;14.858;2022-09-09T04:13:19;97124.09;;;12.01;100.00
71889;BME280;59762;49.998;14.858;2022-09-09T04:15:55;97124.66;;;12.03;100.00
71889;BME280;59762;49.998;14.858;2022-09-09T04:18:22;97126.31;;;12.04;100.00
71889;BME280;59762;49.998;14.858;2022-09-09T04:20:50;97126.63;;;12.08;100.00
71889;BME280;59762;49.998;14.858;2022-09-09T04:23:17;97123.88;;;12.15;100.00
71889;BME280;59762;49.998;14.858;2022-09-09T04:25:48;97121.31;;;12.20;100.00
71889;BME280;59762;49.998;14.858;2022-09-09T04:28:15;97129.22;;;12.26;100.00
71889;BME280;59762;49.998;14.858;2022-09-09T04:30:42;97123.75;;;12.33;100.00
71889;BME280;59762;49.998;14.858;2022-09-09T04:33:09;97124.44;;;12.40;100.00
71889;BME280;59762;49.998;14.858;2022-09-09T04:35:36;97136.41;;;12.49;100.00
71889;BME280;59762;49.998;14.858;2022-09-09T04:38:02;97125.94;;;12.59;100.00
71889;BME280;59762;49.998;14.858;2022-09-09T04:40:32;97135.19;;;12.69;100.00
71889;BME280;59762;49.998;14.858;2022-09-09T04:42:59;97123.69;;;12.80;100.00
71889;BME280;59762;49.998;14.858;2022-09-09T04:45:24;97132.25;;;12.94;100.00
71889;BME280;59762;49.998;14.858;2022-09-09T04:47:51;97132.59;;;13.37;100.00
71889;BME280;59762;49.998;14.858;2022-09-09T04:50:18;97123.94;;;14.14;100.00
71889;BME280;59762;49.998;14.858;2022-09-09T04:52:44;97105.50;;;14.35;100.00
71889;BME280;59762;49.998;14.858;2022-09-09T04:55:10;97108.81;;;14.42;100.00
71889;BME280;59762;49.998;14.858;2022-09-09T04:57:35;97106.28;;;15.18;100.00
71889;BME280;59762;49.998;14.858;2022-09-09T05:00:02;97099.19;;;15.61;95.82
71889;BME280;59762;49.998;14.858;2022-09-09T05:02:28;97104.97;;;16.07;91.51
71889;BME280;59762;49.998;14.858;2022-09-09T05:04:55;97098.19;;;16.36;87.61
71889;BME280;59762;49.998;14.858;2022-09-09T05:07:22;97101.81;;;16.57;86.18
71889;BME280;59762;49.998;14.858;2022-09-09T05:09:48;97105.94;;;15.63;90.28
71889;BME280;59762;49.998;14.858;2022-09-09T05:12:16;97097.16;;;14.92;96.79
71889;BME280;59762;49.998;14.858;2022-09-09T05:14:42;97108.75;;;14.54;100.00
71889;BME280;59762;49.998;14.858;2022-09-09T05:17:09;97111.41;;;14.37;100.00
71889;BME280;59762;49.998;14.858;2022-09-09T05:19:35;97124.28;;;14.01;100.00
71889;BME280;59762;49.998;14.858;2022-09-09T05:22:00;97122.91;;;13.82;100.00
71889;BME280;59762;49.998;14.858;2022-09-09T05:24:26;97127.03;;;14.06;100.00
71889;BME280;59762;49.998;14.858;2022-09-09T05:26:52;97112.91;;;15.10;100.00
71889;BME280;59762;49.998;14.858;2022-09-09T05:29:18;97125.81;;;15.89;94.73
71889;BME280;59762;49.998;14.858;2022-09-09T05:31:45;97122.38;;;16.36;90.57
71889;BME280;59762;49.998;14.858;2022-09-09T05:34:11;97115.38;;;16.78;87.24
71889;BME280;59762;49.998;14.858;2022-09-09T05:36:37;97124.50;;;16.77;85.76
71889;BME280;59762;49.998;14.858;2022-09-09T05:39:03;97112.38;;;15.89;91.30
71889;BME280;59762;49.998;14.858;2022-09-09T05:41:28;97121.78;;;15.38;95.26
71889;BME280;59762;49.998;14.858;2022-09-09T05:43:54;97123.66;;;15.10;99.19
71889;BME280;59762;49.998;14.858;2022-09-09T05:46:22;97124.28;;;14.96;100.00
71889;BME280;59762;49.998;14.858;2022-09-09T05:48:50;97125.66;;;14.76;100.00
71889;BME280;59762;49.998;14.858;2022-09-09T05:51:19;97122.78;;;14.61;100.00
71889;BME280;59762;49.998;14.858;2022-09-09T05:53:47;97122.88;;;14.49;100.00
71889;BME280;59762;49.998;14.858;2022-09-09T05:56:14;97131.25;;;14.53;100.00
71889;BME280;59762;49.998;14.858;2022-09-09T05:58:40;97128.25;;;14.49;100.00
71889;BME280;59762;49.998;14.858;2022-09-09T06:01:19;97134.00;;;14.41;100.00
71889;BME280;59762;49.998;14.858;2022-09-09T06:03:47;97136.66;;;14.41;100.00
71889;BME280;59762;49.998;14.858;2022-09-09T06:06:21;97141.38;;;14.51;100.00
71889;BME280;59762;49.998;14.858;2022-09-09T06:08:51;97147.31;;;14.53;100.00
71889;BME280;59762;49.998;14.858;2022-09-09T06:11:19;97149.19;;;14.52;100.00
71889;BME280;59762;49.998;14.858;2022-09-09T06:13:45;97146.75;;;14.51;100.00
71889;BME280;59762;49.998;14.858;2022-09-09T06:16:16;97144.38;;;14.54;100.00
71889;BME280;59762;49.998;14.858;2022-09-09T06:18:43;97143.47;;;14.66;100.00
71889;BME280;59762;49.998;14.858;2022-09-09T06:21:15;97137.56;;;14.85;100.00
71889;BME280;59762;49.998;14.858;2022-09-09T06:23:42;97148.19;;;14.97;100.00
71889;BME280;59762;49.998;14.858;2022-09-09T06:26:17;97148.59;;;14.89;100.00
71889;BME280;59762;49.998;14.858;2022-09-09T06:28:44;97153.84;;;14.79;100.00
71889;BME280;59762;49.998;14.858;2022-09-09T06:31:13;97159.84;;;14.69;100.00
71889;BME280;59762;49.998;14.858;2022-09-09T06:33:41;97153.88;;;14.62;100.00
71889;BME280;59762;49.998;14.858;2022-09-09T06:36:13;97165.06;;;14.76;100.00
71889;BME280;59762;49.998;14.858;2022-09-09T06:38:40;97164.31;;;14.80;100.00
71889;BME280;59762;49.998;14.858;2022-09-09T06:41:08;97154.34;;;14.76;100.00
71889;BME280;59762;49.998;14.858;2022-09-09T06:43:35;97157.44;;;14.68;100.00
71889;BME280;59762;49.998;14.858;2022-09-09T06:46:06;97160.53;;;14.59;100.00
71889;BME280;59762;49.998;14.858;2022-09-09T06:48:34;97156.56;;;14.62;100.00
71889;BME280;59762;49.998;14.858;2022-09-09T06:51:04;97155.94;;;14.77;100.00
71889;BME280;59762;49.998;14.858;2022-09-09T06:53:29;97159.81;;;14.86;100.00
71889;BME280;59762;49.998;14.858;2022-09-09T06:55:56;97161.44;;;14.87;100.00
71889;BME280;59762;49.998;14.858;2022-09-09T06:58:21;97165.75;;;14.88;100.00
71889;BME280;59762;49.998;14.858;2022-09-09T07:00:47;97173.81;;;14.88;100.00
71889;BME280;59762;49.998;14.858;2022-09-09T07:03:13;97169.69;;;14.80;100.00
71889;BME280;59762;49.998;14.858;2022-09-09T07:05:39;97166.78;;;14.87;100.00
71889;BME280;59762;49.998;14.858;2022-09-09T07:08:04;97172.25;;;15.14;100.00
71889;BME280;59762;49.998;14.858;2022-09-09T07:10:31;97164.75;;;15.38;100.00
71889;BME280;59762;49.998;14.858;2022-09-09T07:12:57;97157.53;;;15.66;100.00
71889;BME280;59762;49.998;14.858;2022-09-09T07:15:22;97159.66;;;15.91;100.00
71889;BME280;59762;49.998;14.858;2022-09-09T07:17:48;97161.97;;;16.14;100.00
71889;BME280;59762;49.998;14.858;2022-09-09T07:20:14;97164.28;;;16.37;100.00
71889;BME280;59762;49.998;14.858;2022-09-09T07:22:41;97162.28;;;16.60;100.00
71889;BME280;59762;49.998;14.858;2022-09-09T07:25:07;97160.84;;;16.84;98.72
71889;BME280;59762;49.998;14.858;2022-09-09T07:27:33;97160.13;;;17.04;94.93
71889;BME280;59762;49.998;14.858;2022-09-09T07:29:58;97161.56;;;17.22;94.79
71889;BME280;59762;49.998;14.858;2022-09-09T07:32:24;97167.78;;;17.28;93.25
71889;BME280;59762;49.998;14.858;2022-09-09T07:34:51;97167.00;;;17.48;93.77
71889;BME280;59762;49.998;14.858;2022-09-09T07:37:17;97160.31;;;17.65;91.35
71889;BME280;59762;49.998;14.858;2022-09-09T07:39:43;97158.19;;;17.73;87.20
71889;BME280;59762;49.998;14.858;2022-09-09T07:42:10;97160.41;;;17.81;86.73
71889;BME280;59762;49.998;14.858;2022-09-09T07:44:38;97156.34;;;17.78;87.93
71889;BME280;59762;49.998;14.858;2022-09-09T07:47:05;97165.50;;;17.93;89.13
71889;BME280;59762;49.998;14.858;2022-09-09T07:49:31;97158.25;;;17.98;86.83
71889;BME280;59762;49.998;14.858;2022-09-09T07:51:57;97157.44;;;18.08;87.99
71889;BME280;59762;49.998;14.858;2022-09-09T07:54:23;97155.03;;;18.17;87.58
71889;BME280;59762;49.998;14.858;2022-09-09T07:56:49;97156.63;;;18.23;88.26
71889;BME280;59762;49.998;14.858;2022-09-09T07:59:16;97163.63;;;18.34;86.88
71889;BME280;59762;49.998;14.858;2022-09-09T08:01:44;97162.00;;;18.53;87.30
71889;BME280;59762;49.998;14.858;2022-09-09T08:04:16;97167.38;;;18.74;86.75
71889;BME280;59762;49.998;14.858;2022-09-09T08:06:45;97162.13;;;19.08;85.90
71889;BME280;59762;49.998;14.858;2022-09-09T08:09:12;97163.41;;;19.31;83.61
71889;BME280;59762;49.998;14.858;2022-09-09T08:11:38;97165.78;;;19.37;82.89
71889;BME280;59762;49.998;14.858;2022-09-09T08:14:06;97166.53;;;19.53;84.21
71889;BME280;59762;49.998;14.858;2022-09-09T08:16:35;97171.91;;;19.63;81.22
71889;BME280;59762;49.998;14.858;2022-09-09T08:19:03;97161.94;;;19.54;81.79
71889;BME280;59762;49.998;14.858;2022-09-09T08:21:31;97179.31;;;19.32;84.42
71889;BME280;59762;49.998;14.858;2022-09-09T08:23:59;97180.69;;;19.25;84.29
71889;BME280;59762;49.998;14.858;2022-09-09T08:26:33;97180.50;;;19.06;81.85
71889;BME280;59762;49.998;14.858;2022-09-09T08:29:01;97188.34;;;19.02;85.18
71889;BME280;59762;49.998;14.858;2022-09-09T08:31:33;97187.28;;;18.93;81.63
71889;BME280;59762;49.998;14.858;2022-09-09T08:34:00;97196.50;;;18.77;82.34
71889;BME280;59762;49.998;14.858;2022-09-09T08:36:28;97195.69;;;18.86;83.36
71889;BME280;59762;49.998;14.858;2022-09-09T08:38:57;97191.09;;;18.87;83.23
71889;BME280;59762;49.998;14.858;2022-09-09T08:49:43;97185.97;;;18.65;86.64
71889;BME280;59762;49.998;14.858;2022-09-09T08:57:42;97186.81;;;18.45;89.85
71889;BME280;59762;49.998;14.858;2022-09-09T09:00:10;97195.16;;;18.64;89.41
71889;BME280;59762;49.998;14.858;2022-09-09T09:05:31;97184.09;;;18.60;88.07
71889;BME280;59762;49.998;14.858;2022-09-09T09:10:42;97181.59;;;19.05;88.46
71889;BME280;59762;49.998;14.858;2022-09-09T09:13:18;97183.88;;;19.42;83.63
71889;BME280;59762;49.998;14.858;2022-09-09T09:15:50;97185.31;;;19.84;83.54
71889;BME280;59762;49.998;14.858;2022-09-09T09:18:17;97179.94;;;20.13;80.34
71889;BME280;59762;49.998;14.858;2022-09-09T09:20:50;97189.06;;;20.22;77.38
71889;BME280;59762;49.998;14.858;2022-09-09T09:23:23;97181.09;;;20.36;75.48
71889;BME280;59762;49.998;14.858;2022-09-09T09:25:50;97183.38;;;20.58;75.47
71889;BME280;59762;49.998;14.858;2022-09-09T09:28:24;97181.44;;;20.63;77.31
71889;BME280;59762;49.998;14.858;2022-09-09T09:30:56;97175.88;;;20.45;74.17
71889;BME280;59762;49.998;14.858;2022-09-09T09:36:02;97182.38;;;20.14;73.00
71889;BME280;59762;49.998;14.858;2022-09-09T09:38:28;97179.19;;;20.07;73.06
71889;BME280;59762;49.998;14.858;2022-09-09T09:40:56;97188.59;;;20.15;76.18
71889;BME280;59762;49.998;14.858;2022-09-09T09:43:30;97180.69;;;20.19;75.05
71889;BME280;59762;49.998;14.858;2022-09-09T09:45:58;97174.81;;;20.11;74.72
71889;BME280;59762;49.998;14.858;2022-09-09T09:48:25;97170.97;;;19.83;72.69
71889;BME280;59762;49.998;14.858;2022-09-09T09:50:52;97177.91;;;19.95;69.92
71889;BME280;59762;49.998;14.858;2022-09-09T09:53:26;97176.06;;;20.24;73.57
71889;BME280;59762;49.998;14.858;2022-09-09T09:55:55;97171.47;;;20.59;68.44
71889;BME280;59762;49.998;14.858;2022-09-09T09:58:21;97162.13;;;20.99;68.71
71889;BME280;59762;49.998;14.858;2022-09-09T10:00:51;97161.59;;;20.97;67.35
71889;BME280;59762;49.998;14.858;2022-09-09T10:05:54;97155.88;;;20.75;69.00
71889;BME280;59762;49.998;14.858;2022-09-09T10:08:20;97157.66;;;20.84;69.12
71889;BME280;59762;49.998;14.858;2022-09-09T10:16:15;97149.38;;;20.76;64.45
71889;BME280;59762;49.998;14.858;2022-09-09T10:24:26;97146.50;;;21.77;63.49
71889;BME280;59762;49.998;14.858;2022-09-09T10:27:04;97144.22;;;21.84;64.94
71889;BME280;59762;49.998;14.858;2022-09-09T10:32:46;97143.81;;;22.28;61.16
71889;BME280;59762;49.998;14.858;2022-09-09T10:35:26;97136.06;;;22.03;58.24
71889;BME280;59762;49.998;14.858;2022-09-09T10:46:32;97116.84;;;21.48;57.40
71889;BME280;59762;49.998;14.858;2022-09-09T10:52:42;97123.38;;;21.23;62.25
71889;BME280;59762;49.998;14.858;2022-09-09T10:55:17;97125.28;;;21.22;62.23
71889;BME280;59762;49.998;14.858;2022-09-09T10:57:49;97129.94;;;21.40;59.50
71889;BME280;59762;49.998;14.858;2022-09-09T11:00:19;97131.34;;;21.57;59.52
71889;BME280;59762;49.998;14.858;2022-09-09T11:02:55;97134.78;;;21.62;61.45
71889;BME280;59762;49.998;14.858;2022-09-09T11:05:35;97128.78;;;21.65;57.61
71889;BME280;59762;49.998;14.858;2022-09-09T11:08:11;97134.41;;;21.88;60.99
71889;BME280;59762;49.998;14.858;2022-09-09T11:10:42;97127.94;;;21.46;60.51
71889;BME280;59762;49.998;14.858;2022-09-09T11:13:22;97127.97;;;21.22;60.08
71889;BME280;59762;49.998;14.858;2022-09-09T11:16:00;97133.00;;;21.10;63.58
71889;BME280;59762;49.998;14.858;2022-09-09T11:18:31;97129.91;;;20.98;61.18
71889;BME280;59762;49.998;14.858;2022-09-09T11:21:03;97126.63;;;21.01;62.85
71889;BME280;59762;49.998;14.858;2022-09-09T11:23:43;97133.41;;;20.98;61.79
71889;BME280;59762;49.998;14.858;2022-09-09T11:26:17;97129.78;;;21.08;60.91
71889;BME280;59762;49.998;14.858;2022-09-09T11:29:10;97117.16;;;21.22;61.61
71889;BME280;59762;49.998;14.858;2022-09-09T11:31:49;97103.28;;;21.48;62.13
71889;BME280;59762;49.998;14.858;2022-09-09T11:42:34;97112.75;;;21.26;56.92
71889;BME280;59762;49.998;14.858;2022-09-09T11:47:54;97103.78;;;21.07;55.57
71889;BME280;59762;49.998;14.858;2022-09-09T11:52:47;97095.03;;;21.39;57.00
71889;BME280;59762;49.998;14.858;2022-09-09T11:55:30;97106.34;;;21.41;60.63
71889;BME280;59762;49.998;14.858;2022-09-09T12:00:48;97122.03;;;21.20;60.53
71889;BME280;59762;49.998;14.858;2022-09-09T12:03:44;97107.31;;;21.31;59.43
71889;BME280;59762;49.998;14.858;2022-09-09T12:06:31;97106.88;;;21.43;59.35
71889;BME280;59762;49.998;14.858;2022-09-09T12:09:06;97115.44;;;21.31;59.68
71889;BME280;59762;49.998;14.858;2022-09-09T12:11:33;97107.81;;;21.33;58.30
71889;BME280;59762;49.998;14.858;2022-09-09T12:14:00;97097.94;;;21.42;59.09
71889;BME280;59762;49.998;14.858;2022-09-09T12:16:36;97106.78;;;21.67;57.88
71889;BME280;59762;49.998;14.858;2022-09-09T12:19:12;97094.63;;;21.83;54.89
71889;BME280;59762;49.998;14.858;2022-09-09T12:21:46;97099.88;;;21.94;58.12
71889;BME280;59762;49.998;14.858;2022-09-09T12:24:23;97107.06;;;21.84;57.32
71889;BME280;59762;49.998;14.858;2022-09-09T12:27:00;97100.41;;;21.77;56.36
71889;BME280;59762;49.998;14.858;2022-09-09T12:30:07;97089.56;;;21.77;58.41
71889;BME280;59762;49.998;14.858;2022-09-09T12:32:25;97093.69;;;21.55;58.17
71889;BME280;59762;49.998;14.858;2022-09-09T12:34:58;97096.09;;;21.38;58.86
71889;BME280;59762;49.998;14.858;2022-09-09T12:37:37;97095.53;;;21.41;59.85
71889;BME280;59762;49.998;14.858;2022-09-09T12:42:31;97090.50;;;21.29;61.08
71889;BME280;59762;49.998;14.858;2022-09-09T12:45:01;97093.66;;;21.17;61.90
71889;BME280;59762;49.998;14.858;2022-09-09T12:50:33;97097.03;;;20.85;62.27
71889;BME280;59762;49.998;14.858;2022-09-09T12:53:24;97100.25;;;20.87;63.50
71889;BME280;59762;49.998;14.858;2022-09-09T12:58:21;97100.44;;;20.72;62.79
71889;BME280;59762;49.998;14.858;2022-09-09T13:00:54;97102.38;;;20.66;64.17
71889;BME280;59762;49.998;14.858;2022-09-09T13:03:24;97098.59;;;20.68;64.23
71889;BME280;59762;49.998;14.858;2022-09-09T13:05:50;97097.38;;;20.55;65.71
71889;BME280;59762;49.998;14.858;2022-09-09T13:08:17;97104.19;;;20.47;64.74
71889;BME280;59762;49.998;14.858;2022-09-09T13:11:04;97098.88;;;20.37;64.10
71889;BME280;59762;49.998;14.858;2022-09-09T13:13:40;97105.38;;;20.36;63.55
71889;BME280;59762;49.998;14.858;2022-09-09T13:16:19;97095.41;;;20.31;65.98
71889;BME280;59762;49.998;14.858;2022-09-09T13:18:46;97097.78;;;20.38;63.87
71889;BME280;59762;49.998;14.858;2022-09-09T13:21:12;97102.63;;;20.41;64.61
71889;BME280;59762;49.998;14.858;2022-09-09T13:23:38;97093.69;;;20.40;65.83
71889;BME280;59762;49.998;14.858;2022-09-09T13:26:22;97093.00;;;20.30;67.65
71889;BME280;59762;49.998;14.858;2022-09-09T13:28:48;97084.41;;;20.23;64.07
71889;BME280;59762;49.998;14.858;2022-09-09T13:31:28;97082.56;;;20.18;63.70
71889;BME280;59762;49.998;14.858;2022-09-09T13:33:54;97090.47;;;20.09;65.19
71889;BME280;59762;49.998;14.858;2022-09-09T13:36:31;97097.22;;;20.12;62.81
71889;BME280;59762;49.998;14.858;2022-09-09T13:38:58;97096.94;;;20.13;64.66
71889;BME280;59762;49.998;14.858;2022-09-09T13:41:36;97095.66;;;20.06;62.37
71889;BME280;59762;49.998;14.858;2022-09-09T13:44:27;97095.41;;;20.02;61.72
71889;BME280;59762;49.998;14.858;2022-09-09T13:47:05;97090.28;;;19.67;63.99
71889;BME280;59762;49.998;14.858;2022-09-09T13:49:31;97093.34;;;19.50;65.28
71889;BME280;59762;49.998;14.858;2022-09-09T13:52:09;97089.81;;;19.05;66.44
71889;BME280;59762;49.998;14.858;2022-09-09T13:54:35;97098.22;;;18.93;68.59
71889;BME280;59762;49.998;14.858;2022-09-09T13:57:00;97090.25;;;18.73;67.82
71889;BME280;59762;49.998;14.858;2022-09-09T13:59:26;97096.19;;;18.49;68.91
71889;BME280;59762;49.998;14.858;2022-09-09T14:01:52;97085.94;;;18.51;70.63
71889;BME280;59762;49.998;14.858;2022-09-09T14:04:19;97091.88;;;18.48;70.77
71889;BME280;59762;49.998;14.858;2022-09-09T14:06:49;97097.31;;;18.33;70.19
71889;BME280;59762;49.998;14.858;2022-09-09T14:09:16;97092.44;;;18.40;70.17
71889;BME280;59762;49.998;14.858;2022-09-09T14:11:43;97105.13;;;18.34;71.30
71889;BME280;59762;49.998;14.858;2022-09-09T14:14:09;97092.97;;;18.37;69.94
71889;BME280;59762;49.998;14.858;2022-09-09T14:16:35;97093.81;;;18.27;71.49
71889;BME280;59762;49.998;14.858;2022-09-09T14:19:00;97086.78;;;18.36;71.05
71889;BME280;59762;49.998;14.858;2022-09-09T14:21:27;97088.91;;;18.45;71.21
71889;BME280;59762;49.998;14.858;2022-09-09T14:23:53;97091.06;;;18.48;72.28
71889;BME280;59762;49.998;14.858;2022-09-09T14:26:22;97084.84;;;18.57;73.84
71889;BME280;59762;49.998;14.858;2022-09-09T14:28:48;97091.81;;;18.63;73.08
71889;BME280;59762;49.998;14.858;2022-09-09T14:31:15;97090.22;;;18.62;73.74
71889;BME280;59762;49.998;14.858;2022-09-09T14:33:43;97088.63;;;18.56;74.54
71889;BME280;59762;49.998;14.858;2022-09-09T14:36:10;97079.72;;;18.56;74.53
71889;BME280;59762;49.998;14.858;2022-09-09T14:38:37;97074.06;;;18.57;73.83
71889;BME280;59762;49.998;14.858;2022-09-09T14:41:10;97070.00;;;18.60;76.11
71889;BME280;59762;49.998;14.858;2022-09-09T14:43:39;97067.56;;;18.58;73.35
71889;BME280;59762;49.998;14.858;2022-09-09T14:46:13;97061.63;;;18.61;74.68
71889;BME280;59762;49.998;14.858;2022-09-09T14:48:39;97057.59;;;18.59;73.92
71889;BME280;59762;49.998;14.858;2022-09-09T14:51:10;97064.88;;;18.58;73.58
71889;BME280;59762;49.998;14.858;2022-09-09T14:53:39;97060.84;;;18.61;75.06
71889;BME280;59762;49.998;14.858;2022-09-09T14:56:09;97058.94;;;18.61;75.50